sensor_id;sensor_type;location;lat;lon;timestamp;P1;durP1;ratioP1;P2;durP2;ratioP2
29246;SDS011;16272;48.188;9.964;2023-02-21T00:02:04;11.43;;;4.30;;
29246;SDS011;16272;48.188;9.964;2023-02-21T00:04:47;12.48;;;4.38;;
29246;SDS011;16272;48.188;9.964;2023-02-21T00:07:32;12.80;;;4.18;;
29246;SDS011;16272;48.188;9.964;2023-02-21T00:10:16;14.93;;;3.60;;
29246;SDS011;16272;48.188;9.964;2023-02-21T00:13:00;11.23;;;3.90;;
29246;SDS011;16272;48.188;9.964;2023-02-21T00:15:44;12.00;;;3.97;;
29246;SDS011;16272;48.188;9.964;2023-02-21T00:18:32;13.32;;;4.85;;
29246;SDS011;16272;48.188;9.964;2023-02-21T00:21:17;12.52;;;4.32;;
29246;SDS011;16272;48.188;9.964;2023-02-21T00:24:01;11.63;;;4.07;;
29246;SDS011;16272;48.188;9.964;2023-02-21T00:26:44;16.10;;;4.70;;
29246;SDS011;16272;48.188;9.964;2023-02-21T00:29:28;11.63;;;4.05;;
29246;SDS011;16272;48.188;9.964;2023-02-21T00:32:12;15.32;;;4.95;;
29246;SDS011;16272;48.188;9.964;2023-02-21T00:34:56;14.85;;;3.67;;
29246;SDS011;16272;48.188;9.964;2023-02-21T00:37:40;14.27;;;4.18;;
29246;SDS011;16272;48.188;9.964;2023-02-21T00:40:24;11.43;;;4.50;;
29246;SDS011;16272;48.188;9.964;2023-02-21T00:43:08;12.88;;;4.13;;
29246;SDS011;16272;48.188;9.964;2023-02-21T00:45:52;15.40;;;4.80;;
29246;SDS011;16272;48.188;9.964;2023-02-21T00:48:36;12.75;;;3.90;;
29246;SDS011;16272;48.188;9.964;2023-02-21T00:51:20;14.52;;;4.80;;
29246;SDS011;16272;48.188;9.964;2023-02-21T00:54:04;12.80;;;4.00;;
29246;SDS011;16272;48.188;9.964;2023-02-21T00:56:47;14.85;;;4.47;;
29246;SDS011;16272;48.188;9.964;2023-02-21T00:59:31;11.98;;;4.00;;
29246;SDS011;16272;48.188;9.964;2023-02-21T01:02:15;13.88;;;4.57;;
29246;SDS011;16272;48.188;9.964;2023-02-21T01:04:59;12.00;;;4.40;;
29246;SDS011;16272;48.188;9.964;2023-02-21T01:07:43;14.93;;;4.70;;
29246;SDS011;16272;48.188;9.964;2023-02-21T01:10:27;16.27;;;4.80;;
29246;SDS011;16272;48.188;9.964;2023-02-21T01:13:11;16.70;;;4.53;;
29246;SDS011;16272;48.188;9.964;2023-02-21T01:15:55;11.82;;;4.13;;
29246;SDS011;16272;48.188;9.964;2023-02-21T01:18:39;15.02;;;4.75;;
29246;SDS011;16272;48.188;9.964;2023-02-21T01:21:22;12.63;;;5.03;;
29246;SDS011;16272;48.188;9.964;2023-02-21T01:24:08;17.17;;;5.30;;
29246;SDS011;16272;48.188;9.964;2023-02-21T01:26:54;13.02;;;4.75;;
29246;SDS011;16272;48.188;9.964;2023-02-21T01:29:39;13.60;;;5.22;;
29246;SDS011;16272;48.188;9.964;2023-02-21T01:32:23;12.50;;;4.47;;
29246;SDS011;16272;48.188;9.964;2023-02-21T01:35:06;14.00;;;4.57;;
29246;SDS011;16272;48.188;9.964;2023-02-21T01:37:50;16.02;;;4.95;;
29246;SDS011;16272;48.188;9.964;2023-02-21T01:40:38;14.98;;;5.10;;
29246;SDS011;16272;48.188;9.964;2023-02-21T01:43:23;16.65;;;5.00;;
29246;SDS011;16272;48.188;9.964;2023-02-21T01:46:12;13.80;;;5.03;;
29246;SDS011;16272;48.188;9.964;2023-02-21T01:49:11;15.43;;;4.97;;
29246;SDS011;16272;48.188;9.964;2023-02-21T01:52:02;12.57;;;4.60;;
29246;SDS011;16272;48.188;9.964;2023-02-21T01:54:48;11.93;;;4.45;;
29246;SDS011;16272;48.188;9.964;2023-02-21T01:57:34;17.45;;;5.22;;
29246;SDS011;16272;48.188;9.964;2023-02-21T02:00:18;14.40;;;5.05;;
29246;SDS011;16272;48.188;9.964;2023-02-21T02:03:04;16.80;;;5.07;;
29246;SDS011;16272;48.188;9.964;2023-02-21T02:05:59;14.45;;;4.82;;
29246;SDS011;16272;48.188;9.964;2023-02-21T02:08:46;17.15;;;4.82;;
29246;SDS011;16272;48.188;9.964;2023-02-21T02:42:57;13.63;;;4.72;;
29246;SDS011;16272;48.188;9.964;2023-02-21T02:45:45;12.43;;;4.43;;
29246;SDS011;16272;48.188;9.964;2023-02-21T02:48:21;12.40;;;5.20;;
29246;SDS011;16272;48.188;9.964;2023-02-21T02:50:50;13.88;;;4.38;;
29246;SDS011;16272;48.188;9.964;2023-02-21T02:53:20;14.25;;;4.82;;
29246;SDS011;16272;48.188;9.964;2023-02-21T02:55:54;12.37;;;4.50;;
29246;SDS011;16272;48.188;9.964;2023-02-21T02:58:21;12.95;;;4.32;;
29246;SDS011;16272;48.188;9.964;2023-02-21T03:01:00;14.50;;;4.55;;
29246;SDS011;16272;48.188;9.964;2023-02-21T03:03:41;11.20;;;4.28;;
29246;SDS011;16272;48.188;9.964;2023-02-21T03:06:38;12.40;;;4.50;;
29246;SDS011;16272;48.188;9.964;2023-02-21T03:09:16;12.83;;;4.17;;
29246;SDS011;16272;48.188;9.964;2023-02-21T03:12:03;13.00;;;4.38;;
29246;SDS011;16272;48.188;9.964;2023-02-21T03:14:36;12.80;;;4.47;;
29246;SDS011;16272;48.188;9.964;2023-02-21T03:17:10;15.98;;;4.82;;
29246;SDS011;16272;48.188;9.964;2023-02-21T03:19:43;13.80;;;5.22;;
29246;SDS011;16272;48.188;9.964;2023-02-21T03:22:12;14.37;;;4.87;;
29246;SDS011;16272;48.188;9.964;2023-02-21T03:24:41;16.00;;;4.75;;
29246;SDS011;16272;48.188;9.964;2023-02-21T03:27:10;14.68;;;4.70;;
29246;SDS011;16272;48.188;9.964;2023-02-21T03:29:37;13.90;;;4.72;;
29246;SDS011;16272;48.188;9.964;2023-02-21T03:32:16;17.08;;;5.20;;
29246;SDS011;16272;48.188;9.964;2023-02-21T03:34:45;13.50;;;4.43;;
29246;SDS011;16272;48.188;9.964;2023-02-21T03:37:31;17.05;;;4.82;;
29246;SDS011;16272;48.188;9.964;2023-02-21T03:40:02;14.33;;;4.67;;
29246;SDS011;16272;48.188;9.964;2023-02-21T03:42:30;15.60;;;4.82;;
29246;SDS011;16272;48.188;9.964;2023-02-21T03:44:56;15.27;;;5.37;;
29246;SDS011;16272;48.188;9.964;2023-02-21T03:47:21;18.23;;;4.97;;
29246;SDS011;16272;48.188;9.964;2023-02-21T03:49:46;19.67;;;5.10;;
29246;SDS011;16272;48.188;9.964;2023-02-21T03:52:12;15.73;;;5.10;;
29246;SDS011;16272;48.188;9.964;2023-02-21T03:54:38;17.15;;;5.57;;
29246;SDS011;16272;48.188;9.964;2023-02-21T03:57:04;15.43;;;5.28;;
29246;SDS011;16272;48.188;9.964;2023-02-21T03:59:30;16.20;;;5.07;;
29246;SDS011;16272;48.188;9.964;2023-02-21T04:01:55;16.30;;;5.30;;
29246;SDS011;16272;48.188;9.964;2023-02-21T04:04:20;19.57;;;5.80;;
29246;SDS011;16272;48.188;9.964;2023-02-21T04:06:46;16.87;;;5.10;;
29246;SDS011;16272;48.188;9.964;2023-02-21T04:09:11;15.03;;;5.03;;
29246;SDS011;16272;48.188;9.964;2023-02-21T04:11:36;15.63;;;5.20;;
29246;SDS011;16272;48.188;9.964;2023-02-21T04:14:01;15.27;;;5.07;;
29246;SDS011;16272;48.188;9.964;2023-02-21T04:16:28;15.40;;;5.15;;
29246;SDS011;16272;48.188;9.964;2023-02-21T04:18:54;12.25;;;4.55;;
29246;SDS011;16272;48.188;9.964;2023-02-21T04:21:19;16.53;;;4.93;;
29246;SDS011;16272;48.188;9.964;2023-02-21T04:23:45;13.40;;;4.73;;
29246;SDS011;16272;48.188;9.964;2023-02-21T04:26:10;15.73;;;4.80;;
29246;SDS011;16272;48.188;9.964;2023-02-21T04:28:35;15.27;;;5.70;;
29246;SDS011;16272;48.188;9.964;2023-02-21T04:31:01;13.27;;;4.78;;
29246;SDS011;16272;48.188;9.964;2023-02-21T04:33:26;13.07;;;5.10;;
29246;SDS011;16272;48.188;9.964;2023-02-21T04:35:51;13.67;;;4.67;;
29246;SDS011;16272;48.188;9.964;2023-02-21T04:38:17;13.30;;;4.80;;
29246;SDS011;16272;48.188;9.964;2023-02-21T04:40:42;14.07;;;5.03;;
29246;SDS011;16272;48.188;9.964;2023-02-21T04:43:07;13.90;;;4.97;;
29246;SDS011;16272;48.188;9.964;2023-02-21T04:45:32;13.73;;;5.43;;
29246;SDS011;16272;48.188;9.964;2023-02-21T04:47:58;14.80;;;5.10;;
29246;SDS011;16272;48.188;9.964;2023-02-21T04:50:23;14.73;;;4.90;;
29246;SDS011;16272;48.188;9.964;2023-02-21T04:52:48;14.40;;;4.97;;
29246;SDS011;16272;48.188;9.964;2023-02-21T04:55:14;15.23;;;5.13;;
29246;SDS011;16272;48.188;9.964;2023-02-21T04:57:40;14.63;;;5.22;;
29246;SDS011;16272;48.188;9.964;2023-02-21T05:00:05;12.93;;;5.30;;
29246;SDS011;16272;48.188;9.964;2023-02-21T05:02:32;15.15;;;5.50;;
29246;SDS011;16272;48.188;9.964;2023-02-21T05:04:58;14.05;;;5.20;;
29246;SDS011;16272;48.188;9.964;2023-02-21T05:07:23;15.60;;;5.27;;
29246;SDS011;16272;48.188;9.964;2023-02-21T05:09:48;14.03;;;4.90;;
29246;SDS011;16272;48.188;9.964;2023-02-21T05:12:14;14.67;;;4.80;;
29246;SDS011;16272;48.188;9.964;2023-02-21T05:14:39;13.73;;;4.87;;
29246;SDS011;16272;48.188;9.964;2023-02-21T05:17:05;14.25;;;5.32;;
29246;SDS011;16272;48.188;9.964;2023-02-21T05:19:31;14.68;;;5.15;;
29246;SDS011;16272;48.188;9.964;2023-02-21T05:21:57;14.00;;;4.93;;
29246;SDS011;16272;48.188;9.964;2023-02-21T05:24:25;14.75;;;5.40;;
29246;SDS011;16272;48.188;9.964;2023-02-21T05:26:51;15.23;;;5.47;;
29246;SDS011;16272;48.188;9.964;2023-02-21T05:29:17;15.30;;;5.43;;
29246;SDS011;16272;48.188;9.964;2023-02-21T05:31:42;13.50;;;4.97;;
29246;SDS011;16272;48.188;9.964;2023-02-21T05:34:08;17.88;;;5.85;;
29246;SDS011;16272;48.188;9.964;2023-02-21T05:36:34;15.50;;;5.35;;
29246;SDS011;16272;48.188;9.964;2023-02-21T05:38:59;13.37;;;5.20;;
29246;SDS011;16272;48.188;9.964;2023-02-21T05:41:25;16.00;;;5.67;;
29246;SDS011;16272;48.188;9.964;2023-02-21T05:43:50;17.67;;;6.20;;
29246;SDS011;16272;48.188;9.964;2023-02-21T05:46:20;17.90;;;6.03;;
29246;SDS011;16272;48.188;9.964;2023-02-21T05:48:51;15.70;;;5.55;;
29246;SDS011;16272;48.188;9.964;2023-02-21T05:51:18;14.63;;;5.30;;
29246;SDS011;16272;48.188;9.964;2023-02-21T05:53:44;15.93;;;5.93;;
29246;SDS011;16272;48.188;9.964;2023-02-21T05:56:10;15.25;;;6.03;;
29246;SDS011;16272;48.188;9.964;2023-02-21T05:58:35;15.60;;;5.53;;
29246;SDS011;16272;48.188;9.964;2023-02-21T06:01:01;16.30;;;5.75;;
29246;SDS011;16272;48.188;9.964;2023-02-21T06:03:27;17.63;;;5.82;;
29246;SDS011;16272;48.188;9.964;2023-02-21T06:05:53;18.07;;;5.70;;
29246;SDS011;16272;48.188;9.964;2023-02-21T06:08:18;14.73;;;5.50;;
29246;SDS011;16272;48.188;9.964;2023-02-21T06:10:43;14.30;;;5.60;;
29246;SDS011;16272;48.188;9.964;2023-02-21T06:13:09;13.70;;;5.70;;
29246;SDS011;16272;48.188;9.964;2023-02-21T06:15:34;16.70;;;5.70;;
29246;SDS011;16272;48.188;9.964;2023-02-21T06:17:59;13.80;;;5.60;;
29246;SDS011;16272;48.188;9.964;2023-02-21T06:20:25;13.43;;;5.00;;
29246;SDS011;16272;48.188;9.964;2023-02-21T06:22:50;14.52;;;5.28;;
29246;SDS011;16272;48.188;9.964;2023-02-21T06:25:16;15.10;;;5.33;;
29246;SDS011;16272;48.188;9.964;2023-02-21T06:27:41;14.07;;;4.95;;
29246;SDS011;16272;48.188;9.964;2023-02-21T06:30:08;13.50;;;5.47;;
29246;SDS011;16272;48.188;9.964;2023-02-21T06:32:34;14.57;;;5.55;;
29246;SDS011;16272;48.188;9.964;2023-02-21T06:34:59;14.83;;;5.50;;
29246;SDS011;16272;48.188;9.964;2023-02-21T06:37:24;15.50;;;5.97;;
29246;SDS011;16272;48.188;9.964;2023-02-21T06:39:50;18.00;;;5.93;;
29246;SDS011;16272;48.188;9.964;2023-02-21T06:42:15;18.63;;;6.23;;
29246;SDS011;16272;48.188;9.964;2023-02-21T06:44:45;16.37;;;5.87;;
29246;SDS011;16272;48.188;9.964;2023-02-21T06:47:11;18.48;;;7.28;;
29246;SDS011;16272;48.188;9.964;2023-02-21T06:49:37;17.50;;;6.47;;
29246;SDS011;16272;48.188;9.964;2023-02-21T06:52:03;17.60;;;6.87;;
29246;SDS011;16272;48.188;9.964;2023-02-21T06:54:28;14.97;;;6.13;;
29246;SDS011;16272;48.188;9.964;2023-02-21T06:56:54;18.27;;;6.65;;
29246;SDS011;16272;48.188;9.964;2023-02-21T06:59:20;19.38;;;6.90;;
29246;SDS011;16272;48.188;9.964;2023-02-21T07:01:46;17.57;;;6.60;;
29246;SDS011;16272;48.188;9.964;2023-02-21T07:04:11;16.70;;;6.23;;
29246;SDS011;16272;48.188;9.964;2023-02-21T07:06:37;17.13;;;6.67;;
29246;SDS011;16272;48.188;9.964;2023-02-21T07:09:02;15.98;;;6.20;;
29246;SDS011;16272;48.188;9.964;2023-02-21T07:11:28;16.90;;;6.43;;
29246;SDS011;16272;48.188;9.964;2023-02-21T07:13:57;17.05;;;5.97;;
29246;SDS011;16272;48.188;9.964;2023-02-21T07:16:23;16.77;;;6.23;;
29246;SDS011;16272;48.188;9.964;2023-02-21T07:18:49;16.20;;;6.25;;
29246;SDS011;16272;48.188;9.964;2023-02-21T07:21:15;18.27;;;6.70;;
29246;SDS011;16272;48.188;9.964;2023-02-21T07:23:44;16.17;;;6.80;;
29246;SDS011;16272;48.188;9.964;2023-02-21T07:26:10;18.00;;;6.15;;
29246;SDS011;16272;48.188;9.964;2023-02-21T07:28:36;16.92;;;6.53;;
29246;SDS011;16272;48.188;9.964;2023-02-21T07:31:01;18.37;;;7.10;;
29246;SDS011;16272;48.188;9.964;2023-02-21T07:33:27;18.03;;;6.57;;
29246;SDS011;16272;48.188;9.964;2023-02-21T07:35:52;20.75;;;7.50;;
29246;SDS011;16272;48.188;9.964;2023-02-21T07:38:21;16.90;;;7.27;;
29246;SDS011;16272;48.188;9.964;2023-02-21T07:40:59;19.80;;;7.82;;
29246;SDS011;16272;48.188;9.964;2023-02-21T07:43:27;21.13;;;8.33;;
29246;SDS011;16272;48.188;9.964;2023-02-21T07:45:53;25.00;;;9.02;;
29246;SDS011;16272;48.188;9.964;2023-02-21T07:48:19;20.47;;;7.90;;
29246;SDS011;16272;48.188;9.964;2023-02-21T07:50:45;21.57;;;8.83;;
29246;SDS011;16272;48.188;9.964;2023-02-21T07:53:11;24.90;;;9.25;;
29246;SDS011;16272;48.188;9.964;2023-02-21T07:55:37;23.83;;;9.45;;
29246;SDS011;16272;48.188;9.964;2023-02-21T07:58:03;34.60;;;10.77;;
29246;SDS011;16272;48.188;9.964;2023-02-21T08:00:29;25.10;;;9.55;;
29246;SDS011;16272;48.188;9.964;2023-02-21T08:02:55;26.13;;;10.03;;
29246;SDS011;16272;48.188;9.964;2023-02-21T08:05:21;24.27;;;9.63;;
29246;SDS011;16272;48.188;9.964;2023-02-21T08:07:47;22.07;;;8.93;;
29246;SDS011;16272;48.188;9.964;2023-02-21T08:10:13;25.07;;;10.67;;
29246;SDS011;16272;48.188;9.964;2023-02-21T08:12:44;21.83;;;8.57;;
29246;SDS011;16272;48.188;9.964;2023-02-21T08:15:09;23.40;;;9.73;;
29246;SDS011;16272;48.188;9.964;2023-02-21T08:17:34;19.80;;;8.53;;
29246;SDS011;16272;48.188;9.964;2023-02-21T08:20:00;19.97;;;8.50;;
29246;SDS011;16272;48.188;9.964;2023-02-21T08:22:25;18.20;;;7.82;;
29246;SDS011;16272;48.188;9.964;2023-02-21T08:24:51;16.97;;;7.50;;
29246;SDS011;16272;48.188;9.964;2023-02-21T08:27:16;17.97;;;7.87;;
29246;SDS011;16272;48.188;9.964;2023-02-21T08:29:42;17.38;;;7.40;;
29246;SDS011;16272;48.188;9.964;2023-02-21T08:32:08;16.53;;;7.67;;
29246;SDS011;16272;48.188;9.964;2023-02-21T08:34:33;18.70;;;7.37;;
29246;SDS011;16272;48.188;9.964;2023-02-21T08:36:59;15.85;;;7.22;;
29246;SDS011;16272;48.188;9.964;2023-02-21T08:39:24;14.63;;;6.73;;
29246;SDS011;16272;48.188;9.964;2023-02-21T08:41:54;16.23;;;7.50;;
29246;SDS011;16272;48.188;9.964;2023-02-21T08:44:19;15.57;;;7.80;;
29246;SDS011;16272;48.188;9.964;2023-02-21T08:46:45;15.43;;;6.53;;
29246;SDS011;16272;48.188;9.964;2023-02-21T08:49:11;17.30;;;7.40;;
29246;SDS011;16272;48.188;9.964;2023-02-21T08:51:36;13.87;;;6.93;;
29246;SDS011;16272;48.188;9.964;2023-02-21T08:54:02;16.52;;;7.38;;
29246;SDS011;16272;48.188;9.964;2023-02-21T08:56:27;16.13;;;6.93;;
29246;SDS011;16272;48.188;9.964;2023-02-21T08:58:54;16.23;;;7.20;;
29246;SDS011;16272;48.188;9.964;2023-02-21T09:01:20;14.35;;;7.15;;
29246;SDS011;16272;48.188;9.964;2023-02-21T09:03:47;16.73;;;7.47;;
29246;SDS011;16272;48.188;9.964;2023-02-21T09:06:12;15.20;;;7.30;;
29246;SDS011;16272;48.188;9.964;2023-02-21T09:08:38;18.30;;;7.33;;
29246;SDS011;16272;48.188;9.964;2023-02-21T09:11:04;16.83;;;7.15;;
29246;SDS011;16272;48.188;9.964;2023-02-21T09:13:31;13.95;;;6.30;;
29246;SDS011;16272;48.188;9.964;2023-02-21T09:15:57;13.63;;;6.63;;
29246;SDS011;16272;48.188;9.964;2023-02-21T09:18:24;12.02;;;4.93;;
29246;SDS011;16272;48.188;9.964;2023-02-21T09:20:49;10.65;;;4.80;;
29246;SDS011;16272;48.188;9.964;2023-02-21T09:23:15;12.13;;;4.72;;
29246;SDS011;16272;48.188;9.964;2023-02-21T09:25:42;10.67;;;4.63;;
29246;SDS011;16272;48.188;9.964;2023-02-21T09:28:08;12.82;;;4.63;;
29246;SDS011;16272;48.188;9.964;2023-02-21T09:30:33;10.23;;;4.50;;
29246;SDS011;16272;48.188;9.964;2023-02-21T09:32:59;11.70;;;4.40;;
29246;SDS011;16272;48.188;9.964;2023-02-21T09:35:24;11.33;;;4.77;;
29246;SDS011;16272;48.188;9.964;2023-02-21T09:37:49;12.77;;;4.77;;
29246;SDS011;16272;48.188;9.964;2023-02-21T09:43:00;13.20;;;4.57;;
29246;SDS011;16272;48.188;9.964;2023-02-21T09:45:29;10.80;;;5.03;;
29246;SDS011;16272;48.188;9.964;2023-02-21T09:47:57;11.90;;;5.03;;
29246;SDS011;16272;48.188;9.964;2023-02-21T09:50:26;11.45;;;4.80;;
29246;SDS011;16272;48.188;9.964;2023-02-21T09:52:56;11.52;;;4.72;;
29246;SDS011;16272;48.188;9.964;2023-02-21T09:58:02;10.32;;;4.53;;
29246;SDS011;16272;48.188;9.964;2023-02-21T10:05:45;10.57;;;4.60;;
29246;SDS011;16272;48.188;9.964;2023-02-21T10:13:55;11.15;;;4.80;;
29246;SDS011;16272;48.188;9.964;2023-02-21T10:16:34;9.20;;;4.43;;
29246;SDS011;16272;48.188;9.964;2023-02-21T10:19:15;11.97;;;5.03;;
29246;SDS011;16272;48.188;9.964;2023-02-21T10:21:47;10.45;;;4.30;;
29246;SDS011;16272;48.188;9.964;2023-02-21T10:24:19;10.95;;;4.80;;
29246;SDS011;16272;48.188;9.964;2023-02-21T10:27:04;10.75;;;4.90;;
29246;SDS011;16272;48.188;9.964;2023-02-21T10:32:19;11.60;;;4.70;;
29246;SDS011;16272;48.188;9.964;2023-02-21T10:34:46;10.98;;;4.60;;
29246;SDS011;16272;48.188;9.964;2023-02-21T10:37:33;10.70;;;4.80;;
29246;SDS011;16272;48.188;9.964;2023-02-21T10:40:09;10.73;;;4.47;;
29246;SDS011;16272;48.188;9.964;2023-02-21T10:42:49;11.30;;;4.68;;
29246;SDS011;16272;48.188;9.964;2023-02-21T10:45:19;9.70;;;4.80;;
29246;SDS011;16272;48.188;9.964;2023-02-21T10:48:02;10.90;;;4.57;;
29246;SDS011;16272;48.188;9.964;2023-02-21T10:50:43;13.60;;;5.03;;
29246;SDS011;16272;48.188;9.964;2023-02-21T10:53:21;9.88;;;4.25;;
29246;SDS011;16272;48.188;9.964;2023-02-21T10:58:38;8.00;;;3.90;;
29246;SDS011;16272;48.188;9.964;2023-02-21T11:01:14;11.43;;;4.68;;
29246;SDS011;16272;48.188;9.964;2023-02-21T11:03:48;10.90;;;4.55;;
29246;SDS011;16272;48.188;9.964;2023-02-21T11:06:23;10.73;;;4.03;;
29246;SDS011;16272;48.188;9.964;2023-02-21T11:08:59;8.38;;;3.70;;
29246;SDS011;16272;48.188;9.964;2023-02-21T11:14:06;10.80;;;4.22;;
29246;SDS011;16272;48.188;9.964;2023-02-21T11:16:45;8.77;;;4.00;;
29246;SDS011;16272;48.188;9.964;2023-02-21T11:19:31;9.13;;;3.77;;
29246;SDS011;16272;48.188;9.964;2023-02-21T11:22:06;8.18;;;3.50;;
29246;SDS011;16272;48.188;9.964;2023-02-21T11:24:33;9.27;;;4.00;;
29246;SDS011;16272;48.188;9.964;2023-02-21T11:27:07;9.35;;;4.20;;
29246;SDS011;16272;48.188;9.964;2023-02-21T11:29:33;10.13;;;3.93;;
29246;SDS011;16272;48.188;9.964;2023-02-21T11:31:58;8.70;;;3.90;;
29246;SDS011;16272;48.188;9.964;2023-02-21T11:34:37;8.25;;;3.63;;
29246;SDS011;16272;48.188;9.964;2023-02-21T11:37:03;8.98;;;4.30;;
29246;SDS011;16272;48.188;9.964;2023-02-21T11:39:32;9.10;;;4.18;;
29246;SDS011;16272;48.188;9.964;2023-02-21T11:41:59;9.23;;;3.93;;
29246;SDS011;16272;48.188;9.964;2023-02-21T11:44:35;9.15;;;3.83;;
29246;SDS011;16272;48.188;9.964;2023-02-21T11:47:16;8.60;;;4.22;;
29246;SDS011;16272;48.188;9.964;2023-02-21T11:49:50;9.75;;;4.57;;
29246;SDS011;16272;48.188;9.964;2023-02-21T11:52:25;10.60;;;4.13;;
29246;SDS011;16272;48.188;9.964;2023-02-21T11:54:55;9.83;;;4.60;;
29246;SDS011;16272;48.188;9.964;2023-02-21T11:57:23;10.40;;;4.47;;
29246;SDS011;16272;48.188;9.964;2023-02-21T11:59:54;9.97;;;4.70;;
29246;SDS011;16272;48.188;9.964;2023-02-21T12:05:17;10.05;;;4.57;;
29246;SDS011;16272;48.188;9.964;2023-02-21T12:07:53;10.10;;;4.07;;
29246;SDS011;16272;48.188;9.964;2023-02-21T12:13:51;9.73;;;3.93;;
29246;SDS011;16272;48.188;9.964;2023-02-21T12:16:45;8.57;;;3.67;;
29246;SDS011;16272;48.188;9.964;2023-02-21T12:25:33;8.57;;;3.75;;
29246;SDS011;16272;48.188;9.964;2023-02-21T12:39:15;9.95;;;4.07;;
29246;SDS011;16272;48.188;9.964;2023-02-21T12:41:47;8.77;;;3.73;;
29246;SDS011;16272;48.188;9.964;2023-02-21T12:44:28;9.00;;;3.75;;
29246;SDS011;16272;48.188;9.964;2023-02-21T12:47:09;9.85;;;3.70;;
29246;SDS011;16272;48.188;9.964;2023-02-21T12:50:02;8.93;;;3.47;;
29246;SDS011;16272;48.188;9.964;2023-02-21T12:52:40;8.38;;;3.17;;
29246;SDS011;16272;48.188;9.964;2023-02-21T12:55:20;7.27;;;3.00;;
29246;SDS011;16272;48.188;9.964;2023-02-21T13:00:42;8.93;;;3.10;;
29246;SDS011;16272;48.188;9.964;2023-02-21T13:06:24;8.20;;;3.60;;
29246;SDS011;16272;48.188;9.964;2023-02-21T13:12:02;8.20;;;3.15;;
29246;SDS011;16272;48.188;9.964;2023-02-21T13:14:32;9.15;;;3.40;;
29246;SDS011;16272;48.188;9.964;2023-02-21T13:17:04;7.55;;;3.30;;
29246;SDS011;16272;48.188;9.964;2023-02-21T13:19:39;7.65;;;3.55;;
29246;SDS011;16272;48.188;9.964;2023-02-21T13:30:39;8.73;;;2.80;;
29246;SDS011;16272;48.188;9.964;2023-02-21T13:33:20;6.75;;;2.55;;
29246;SDS011;16272;48.188;9.964;2023-02-21T13:35:51;7.63;;;2.50;;
29246;SDS011;16272;48.188;9.964;2023-02-21T13:38:19;5.80;;;1.98;;
29246;SDS011;16272;48.188;9.964;2023-02-21T13:40:50;7.63;;;2.13;;
29246;SDS011;16272;48.188;9.964;2023-02-21T13:43:22;6.90;;;2.20;;
29246;SDS011;16272;48.188;9.964;2023-02-21T13:45:50;6.30;;;2.25;;
29246;SDS011;16272;48.188;9.964;2023-02-21T13:48:24;7.32;;;2.17;;
29246;SDS011;16272;48.188;9.964;2023-02-21T13:50:52;7.15;;;2.53;;
29246;SDS011;16272;48.188;9.964;2023-02-21T13:53:23;6.43;;;2.03;;
29246;SDS011;16272;48.188;9.964;2023-02-21T13:58:38;7.10;;;2.60;;
29246;SDS011;16272;48.188;9.964;2023-02-21T14:03:52;6.90;;;2.40;;
29246;SDS011;16272;48.188;9.964;2023-02-21T14:09:18;6.68;;;2.22;;
29246;SDS011;16272;48.188;9.964;2023-02-21T14:11:45;6.90;;;2.43;;
29246;SDS011;16272;48.188;9.964;2023-02-21T14:14:29;6.15;;;2.20;;
29246;SDS011;16272;48.188;9.964;2023-02-21T14:17:02;6.68;;;2.45;;
29246;SDS011;16272;48.188;9.964;2023-02-21T14:24:49;6.37;;;2.30;;
29246;SDS011;16272;48.188;9.964;2023-02-21T14:32:48;7.10;;;2.60;;
29246;SDS011;16272;48.188;9.964;2023-02-21T14:38:01;6.82;;;2.65;;
29246;SDS011;16272;48.188;9.964;2023-02-21T14:43:21;7.13;;;2.73;;
29246;SDS011;16272;48.188;9.964;2023-02-21T14:48:52;7.00;;;2.47;;
29246;SDS011;16272;48.188;9.964;2023-02-21T14:51:53;7.10;;;2.05;;
29246;SDS011;16272;48.188;9.964;2023-02-21T14:54:52;7.47;;;2.40;;
29246;SDS011;16272;48.188;9.964;2023-02-21T15:00:17;6.65;;;1.98;;
29246;SDS011;16272;48.188;9.964;2023-02-21T15:02:52;9.05;;;2.60;;
29246;SDS011;16272;48.188;9.964;2023-02-21T15:08:17;7.35;;;2.80;;
29246;SDS011;16272;48.188;9.964;2023-02-21T15:10:47;6.47;;;2.40;;
29246;SDS011;16272;48.188;9.964;2023-02-21T15:13:34;8.43;;;2.20;;
29246;SDS011;16272;48.188;9.964;2023-02-21T15:16:01;7.50;;;2.60;;
29246;SDS011;16272;48.188;9.964;2023-02-21T15:18:30;8.43;;;2.40;;
29246;SDS011;16272;48.188;9.964;2023-02-21T15:21:10;8.02;;;2.63;;
29246;SDS011;16272;48.188;9.964;2023-02-21T15:23:58;7.87;;;2.60;;
29246;SDS011;16272;48.188;9.964;2023-02-21T15:26:37;7.90;;;2.50;;
29246;SDS011;16272;48.188;9.964;2023-02-21T15:29:09;7.30;;;2.63;;
29246;SDS011;16272;48.188;9.964;2023-02-21T15:31:38;8.40;;;2.67;;
29246;SDS011;16272;48.188;9.964;2023-02-21T15:34:05;7.82;;;2.63;;
29246;SDS011;16272;48.188;9.964;2023-02-21T15:36:42;7.80;;;2.65;;
29246;SDS011;16272;48.188;9.964;2023-02-21T15:39:29;8.18;;;2.55;;
29246;SDS011;16272;48.188;9.964;2023-02-21T15:41:57;6.78;;;2.60;;
29246;SDS011;16272;48.188;9.964;2023-02-21T15:44:27;8.63;;;2.73;;
29246;SDS011;16272;48.188;9.964;2023-02-21T15:52:00;8.98;;;2.17;;
29246;SDS011;16272;48.188;9.964;2023-02-21T15:54:31;6.40;;;2.47;;
29246;SDS011;16272;48.188;9.964;2023-02-21T15:56:59;7.60;;;2.33;;
29246;SDS011;16272;48.188;9.964;2023-02-21T15:59:45;7.72;;;2.63;;
29246;SDS011;16272;48.188;9.964;2023-02-21T16:04:38;8.63;;;2.80;;
29246;SDS011;16272;48.188;9.964;2023-02-21T16:07:29;7.63;;;2.70;;
29246;SDS011;16272;48.188;9.964;2023-02-21T16:10:01;8.23;;;2.47;;
29246;SDS011;16272;48.188;9.964;2023-02-21T16:12:37;7.47;;;2.38;;
29246;SDS011;16272;48.188;9.964;2023-02-21T16:15:18;8.77;;;2.47;;
29246;SDS011;16272;48.188;9.964;2023-02-21T16:17:55;9.27;;;2.60;;
29246;SDS011;16272;48.188;9.964;2023-02-21T16:20:36;7.23;;;2.40;;
29246;SDS011;16272;48.188;9.964;2023-02-21T16:26:01;7.90;;;3.20;;
29246;SDS011;16272;48.188;9.964;2023-02-21T16:28:42;7.43;;;2.60;;
29246;SDS011;16272;48.188;9.964;2023-02-21T16:31:14;7.88;;;3.00;;
29246;SDS011;16272;48.188;9.964;2023-02-21T16:33:41;7.37;;;2.50;;
29246;SDS011;16272;48.188;9.964;2023-02-21T16:36:08;6.80;;;2.20;;
29246;SDS011;16272;48.188;9.964;2023-02-21T16:38:41;8.88;;;2.80;;
29246;SDS011;16272;48.188;9.964;2023-02-21T16:41:15;8.60;;;2.60;;
29246;SDS011;16272;48.188;9.964;2023-02-21T16:43:41;9.98;;;2.92;;
29246;SDS011;16272;48.188;9.964;2023-02-21T16:46:07;8.00;;;2.37;;
29246;SDS011;16272;48.188;9.964;2023-02-21T16:48:33;9.20;;;3.00;;
29246;SDS011;16272;48.188;9.964;2023-02-21T16:50:59;7.50;;;2.50;;
29246;SDS011;16272;48.188;9.964;2023-02-21T16:53:30;9.33;;;2.67;;
29246;SDS011;16272;48.188;9.964;2023-02-21T16:55:55;7.35;;;2.40;;
29246;SDS011;16272;48.188;9.964;2023-02-21T16:58:30;7.72;;;2.60;;
29246;SDS011;16272;48.188;9.964;2023-02-21T17:01:03;7.32;;;2.40;;
29246;SDS011;16272;48.188;9.964;2023-02-21T17:03:33;7.07;;;2.30;;
29246;SDS011;16272;48.188;9.964;2023-02-21T17:05:59;7.90;;;2.50;;
29246;SDS011;16272;48.188;9.964;2023-02-21T17:08:25;8.50;;;2.88;;
29246;SDS011;16272;48.188;9.964;2023-02-21T17:10:51;11.00;;;2.85;;
29246;SDS011;16272;48.188;9.964;2023-02-21T17:13:18;7.27;;;2.60;;
29246;SDS011;16272;48.188;9.964;2023-02-21T17:15:44;8.13;;;2.50;;
29246;SDS011;16272;48.188;9.964;2023-02-21T17:18:11;7.90;;;2.35;;
29246;SDS011;16272;48.188;9.964;2023-02-21T17:20:37;8.57;;;2.50;;
29246;SDS011;16272;48.188;9.964;2023-02-21T17:23:03;6.70;;;2.22;;
29246;SDS011;16272;48.188;9.964;2023-02-21T17:25:29;8.13;;;2.20;;
29246;SDS011;16272;48.188;9.964;2023-02-21T17:27:55;7.65;;;2.40;;